• Join FlightAware (Why Join?)
  • Login
  • US Flag 
Trick or treat! (Boo!!) 
09:49AM EDT


 

Airport Tracker/Info


-or-


 

Live Flight TrackerFlight Track Log ✈ N2889D ✈ 06-Aug-2009 ✈ KPRZ - KGTU

Flight Track Log - Related Links

Times and Time Zones

All times are in EDT time to prevent confusion due to time zone crossing. See the N2889D flight status page for this flight to view local times or setup timezone preferences in your user account.

Time Position Orientation Groundspeed Altitude Reporting Facility
EDT Latitude Longitude Course Direction KTS MPH feet Rate Location/Type
06:42PM 34.0136 -103.1710 125° Southeast 94 108 9,500  Level Fort Worth Center
06:43PM 34.0000 -103.1480 122° Southeast 87 100 9,700 240 Climbing Fort Worth Center
06:44PM 33.9847 -103.1190 121° Southeast 87 100 10,000 240 Climbing Fort Worth Center
06:45PM 33.9733 -103.0960 128° Southeast 87 100 10,200 300 Climbing Fort Worth Center
06:46PM 33.9578 -103.0720 124° Southeast 82 94 10,600 300 Climbing Fort Worth Center
06:47PM 33.9461 -103.0510 121° Southeast 82 94 10,900 300 Climbing Fort Worth Center
06:48PM 33.9347 -103.0280 133° Southeast 82 94 11,200 240 Climbing Fort Worth Center
06:49PM 33.9247 -103.0150 124° Southeast 77 89 11,400 180 Climbing Fort Worth Center
06:50PM 33.9075 -102.9840 132° Southeast 88 101 11,600  Climbing Fort Worth Center
06:51PM 33.8897 -102.9600 130° Southeast 88 101 11,500 -60 Descending Fort Worth Center
06:52PM 33.8661 -102.9260 114° Southeast 98 113 11,500  Level Fort Worth Center
06:53PM 33.8531 -102.8910 123° Southeast 113 130 11,500 -60 Level Fort Worth Center
06:54PM 33.8375 -102.8620 126° Southeast 113 130 11,400  Descending Fort Worth Center
06:56PM 33.8122 -102.8200 122° Southeast 113 130 11,500  Climbing Fort Worth Center
06:57PM 33.7950 -102.7870 117° Southeast 113 130 11,400  Descending Fort Worth Center
06:58PM 33.7817 -102.7560 132° Southeast 113 130 11,500  Climbing Fort Worth Center
06:59PM 33.7581 -102.7250 120° Southeast 108 124 11,500  Level Fort Worth Center
07:00PM 33.7444 -102.6960 130° Southeast 108 124 11,500  Level Fort Worth Center
07:01PM 33.7208 -102.6620 115° Southeast 108 124 11,500  Level Fort Worth Center
07:02PM 33.7097 -102.6340 128° Southeast 108 124 11,500  Level Fort Worth Center
07:03PM 33.6881 -102.6010 123° Southeast 108 124 11,500  Level Fort Worth Center
07:04PM 33.6725 -102.5720 128° Southeast 108 124 11,600  Climbing Fort Worth Center
07:05PM 33.6511 -102.5390 119° Southeast 108 124 11,600  Level Fort Worth Center
07:06PM 33.6375 -102.5100 127° Southeast 108 124 11,600  Level Fort Worth Center
07:07PM 33.6181 -102.4790 125° Southeast 108 124 11,600  Level Fort Worth Center
07:08PM 33.6003 -102.4480 125° Southeast 108 124 11,600  Level Fort Worth Center
07:09PM 33.5808 -102.4150 123° Southeast 108 124 11,600  Level Fort Worth Center
07:10PM 33.5653 -102.3860 125° Southeast 108 124 11,600 -120 Level Fort Worth Center
07:31PM 33.1572 -101.6810 130° Southeast 117 135 9,600 -120 Descending Fort Worth Center
07:32PM 33.1372 -101.6530 123° Southeast 122 140 9,500 -60 Descending Fort Worth Center
07:33PM 33.1178 -101.6170 128° Southeast 122 140 9,500  Level Fort Worth Center
07:34PM 33.0997 -101.5890 124° Southeast 122 140 9,600  Climbing Fort Worth Center
07:35PM 33.0781 -101.5510 127° Southeast 122 140 9,600 -60 Level Fort Worth Center
07:36PM 33.0583 -101.5200 124° Southeast 127 146 9,500 -120 Descending Fort Worth Center
07:37PM 33.0386 -101.4850 124° Southeast 132 152 9,400 -60 Descending Fort Worth Center
07:38PM 33.0208 -101.4540 127° Southeast 127 146 9,400  Level Fort Worth Center
07:39PM 32.9989 -101.4190 121° Southeast 122 140 9,500 60 Climbing Fort Worth Center
07:40PM 32.9833 -101.3880 129° Southeast 122 140 9,600  Climbing Fort Worth Center
07:41PM 32.9592 -101.3530 125° Southeast 122 140 9,500 -120 Descending Fort Worth Center
07:42PM 32.9394 -101.3190 121° Southeast 127 146 9,400 -60 Descending Fort Worth Center
07:43PM 32.9217 -101.2840 127° Southeast 127 146 9,400  Level Fort Worth Center
07:44PM 32.9019 -101.2530 122° Southeast 127 146 9,500  Climbing Fort Worth Center
07:45PM 32.8861 -101.2230 129° Southeast 127 146 9,500  Level Fort Worth Center
07:46PM 32.8622 -101.1880 122° Southeast 127 146 9,600  Climbing Fort Worth Center
07:47PM 32.8442 -101.1540 126° Southeast 127 146 9,600  Level Fort Worth Center
07:48PM 32.8244 -101.1210 124° Southeast 127 146 9,600 -60 Level Fort Worth Center
07:49PM 32.8044 -101.0860 130° Southeast 127 146 9,500 -60 Descending Fort Worth Center
07:50PM 32.7844 -101.0580 128° Southeast 127 146 9,500  Level Fort Worth Center
07:51PM 32.7625 -101.0250 121° Southeast 127 146 9,500  Level Fort Worth Center
07:52PM 32.7447 -100.9900 123° Southeast 127 146 9,600  Climbing Fort Worth Center
07:53PM 32.7269 -100.9570 126° Southeast 127 146 9,600 -60 Level Fort Worth Center
07:54PM 32.7069 -100.9240 128° Southeast 127 146 9,500 -60 Descending Fort Worth Center
07:55PM 32.6869 -100.8940 126° Southeast 127 146 9,500  Level Fort Worth Center
07:56PM 32.6669 -100.8610 126° Southeast 127 146 9,600  Climbing Fort Worth Center
07:57PM 32.6469 -100.8280 125° Southeast 122 140 9,600  Level Fort Worth Center
07:58PM 32.6289 -100.7980 126° Southeast 122 140 9,700  Climbing Fort Worth Center
07:59PM 32.6069 -100.7620 122° Southeast 122 140 9,600  Descending Fort Worth Center
08:00PM 32.5911 -100.7320 127° Southeast 122 140 9,700  Climbing Fort Worth Center
08:01PM 32.5692 -100.6970 126° Southeast 122 140 9,600 -60 Descending Fort Worth Center
08:02PM 32.5492 -100.6640 128° Southeast 122 140 9,600  Level Fort Worth Center
08:03PM 32.5308 -100.6360 128° Southeast 122 140 9,600 -60 Level Fort Worth Center
08:04PM 32.5128 -100.6090 124° Southeast 122 140 9,500  Descending Fort Worth Center
08:05PM 32.4908 -100.5710 125° Southeast 122 140 9,600  Climbing Fort Worth Center
08:06PM 32.4728 -100.5410 126° Southeast 122 140 9,600  Level Fort Worth Center
08:07PM 32.4528 -100.5080 124° Southeast 122 140 9,700  Climbing Fort Worth Center
08:08PM 32.4347 -100.4760 126° Southeast 122 140 9,600 -120 Descending Fort Worth Center
08:09PM 32.4147 -100.4430 128° Southeast 122 140 9,500  Descending Fort Worth Center
08:10PM 32.3944 -100.4120 125° Southeast 122 140 9,600 60 Climbing Fort Worth Center
08:11PM 32.3764 -100.3820 126° Southeast 117 135 9,700  Climbing Fort Worth Center
08:12PM 32.3564 -100.3500 126° Southeast 117 135 9,700 -60 Level Fort Worth Center
08:13PM 32.3383 -100.3200 123° Southeast 117 135 9,600 -60 Descending Fort Worth Center
08:14PM 32.3203 -100.2870 126° Southeast 117 135 9,600 -60 Level Fort Worth Center
08:15PM 32.3022 -100.2570 137° Southeast 117 135 9,500 -60 Descending Fort Worth Center
08:16PM 32.2839 -100.2370 118° Southeast 116 133 9,500 60 Level Fort Worth Center
08:17PM 32.2658 -100.1970 129° Southeast 117 135 9,700  Climbing Fort Worth Center
08:20PM 32.2153 -100.1220 126° Southeast 114 131 9,500 -60 Descending Fort Worth Center
08:24PM 32.1408 -99.9994 127° Southeast 117 135 9,400 -120 Descending Fort Worth Center
08:28PM 32.0619 -99.8744 126° Southeast 136 157 9,000 -360 Descending Fort Worth Center
08:32PM 31.9667 -99.7178 125° Southeast 146 168 6,600 -600 Descending Fort Worth Center
08:33PM 31.9444 -99.6806 124° Southeast 139 160 6,300 -360 Descending Fort Worth Center
08:34PM 31.9242 -99.6456 125° Southeast 155 178 5,900 -300 Descending Fort Worth Center
08:35PM 31.9019 -99.6083 124° Southeast 150 173 5,800 -120 Descending Fort Worth Center
08:36PM 31.8817 -99.5736 125° Southeast 142 163 5,700 -120 Descending Fort Worth Center
08:37PM 31.8614 -99.5389 129° Southeast 131 151 5,600 -60 Descending Fort Worth Center
08:38PM 31.8389 -99.5067 124° Southeast 131 151 5,600 -60 Level Fort Worth Center
08:39PM 31.8186 -99.4719 127° Southeast 131 151 5,500 -60 Descending Fort Worth Center
08:40PM 31.7981 -99.4397 127° Southeast 131 151 5,500 60 Level Fort Worth Center
08:41PM 31.7778 -99.4075 129° Southeast 131 151 5,700  Climbing Fort Worth Center
08:42PM 31.7575 -99.3778 122° Southeast 131 151 5,600  Descending Fort Worth Center
08:43PM 31.7392 -99.3431 129° Southeast 131 151 5,700  Climbing Fort Worth Center
08:44PM 31.7167 -99.3108 125° Southeast 131 151 5,600 -120 Descending Fort Worth Center
08:45PM 31.6964 -99.2764 127° Southeast 131 151 5,500  Descending Fort Worth Center
08:46PM 31.6739 -99.2417 126° Southeast 131 151 5,600  Climbing Fort Worth Center
08:47PM 31.6514 -99.2047 127° Southeast 131 151 5,500 -60 Descending Fort Worth Center
08:48PM 31.6311 -99.1725 129° Southeast 131 151 5,500  Level Fort Worth Center
08:49PM 31.6086 -99.1403 124° Southeast 131 151 5,500  Level Fort Worth Center
08:50PM 31.5900 -99.1083 128° Southeast 131 151 5,500  Level Fort Worth Center
08:51PM 31.5675 -99.0739 129° Southeast 131 151 5,600  Climbing Fort Worth Center
08:52PM 31.5450 -99.0417 125° Southeast 131 151 5,500 -60 Descending Fort Worth Center
08:52PM 31.5381 -99.0328 125° Southeast 5,600 -60 Climbing Houston Center
08:53PM 31.5381 -99.0328 125° Southeast 5,600 -60 Level Houston Center
08:54PM 31.5381 -99.0328 125° Southeast 5,600 -60 Level Houston Center
08:55PM 31.5381 -99.0328 125° Southeast 5,600 -60 Level Houston Center
08:56PM 31.5381 -99.0328 125° Southeast 5,600 -120 Level Houston Center
08:57PM 31.4428 -98.8700 127° Southeast 5,600 -120 Level Houston Center
08:58PM 31.4178 -98.8317 129° Southeast 134 154 5,400 -120 Descending Houston Center
08:59PM 31.3964 -98.8011 127° Southeast 129 148 5,400  Level Houston Center
09:00PM 31.3753 -98.7681 126° Southeast 124 143 5,400 -60 Level Houston Center
09:01PM 31.3561 -98.7375 127° Southeast 119 137 5,300  Descending Houston Center
09:02PM 31.3347 -98.7044 128° Southeast 119 137 5,400  Climbing Houston Center
09:03PM 31.3156 -98.6761 127° Southeast 119 137 5,400  Level Houston Center
09:04PM 31.2961 -98.6458 124° Southeast 119 137 5,500  Climbing Houston Center
09:05PM 31.2769 -98.6128 129° Southeast 119 137 5,500  Level Houston Center
09:06PM 31.2539 -98.5797 124° Southeast 119 137 5,500  Level Houston Center
09:07PM 31.2347 -98.5469 127° Southeast 119 137 5,500  Level Houston Center
09:08PM 31.2153 -98.5164 125° Southeast 124 143 5,500 -60 Level Houston Center
09:09PM 31.1942 -98.4811 132° Southeast 124 143 5,400 -120 Descending Houston Center
09:09PM 31.1817 -98.4647 129° Southeast 127 146 5,400 60 Level Fort Worth Center
09:10PM 31.1631 -98.4378 128° Southeast 127 146 5,500  Climbing Fort Worth Center
09:11PM 31.1406 -98.4036 126° Southeast 124 143 5,400  Descending Fort Worth Center
09:12PM 31.1197 -98.3694 129° Southeast 125 144 5,500  Climbing Fort Worth Center
09:13PM 31.0992 -98.3400 127° Southeast 125 144 5,400 -60 Descending Fort Worth Center
09:14PM 31.0786 -98.3083 127° Southeast 124 143 5,400  Level Fort Worth Center
09:15PM 31.0600 -98.2792 125° Southeast 125 144 5,400  Level Fort Worth Center
09:16PM 31.0392 -98.2450 130° Southeast 124 143 5,400  Level Fort Worth Center
09:17PM 31.0167 -98.2133 124° Southeast 124 143 5,500  Climbing Fort Worth Center
09:18PM 30.9981 -98.1814 128° Southeast 122 140 5,500  Level Fort Worth Center
09:19PM 30.9772 -98.1500 126° Southeast 125 144 5,500  Level Fort Worth Center
09:20PM 30.9597 -98.1214 126° Southeast 124 143 5,500  Level Houston Center